Terminal Aerodrome Forecast
Issued by NWS Melbourne, FL

Home | Current Version | Previous Version | Text Only | Print | Product List | Glossary On
Versions: 1 2 3 4 5 6 7 8 9 10 11 12 13 14 15 16 17 18 19 20 21 22 23 24
241
FTUS42 KMLB 091503 AAA
TAFMCO
TAF AMD
KMCO 091503Z 0915/1012 29015G22KT P6SM SCT070
     FM091800 27020G30KT P6SM BKN060
     FM100000 27014KT P6SM SCT050=

USA.gov is the U.S. government's official web portal to all federal, state and local government web resources and services.